KGDV/GDV METAR and TAF weather

Enter ICAO airport designator
Station Type Date Time Source
KGDV METAR 2022/06/27 08:56 UTC NOAA

KGDV 270856Z AUTO 18005KT 10SM CLR 12/06 A3025 RMK AO2 SLP235 T01220056 58007


Station Type Date Time Source
KGDV Decoded METAR 2022/06/27 08:56 UTC NOAA

Glendive, Dawson Community Airport, MT, United States (KGDV) 47-08N 104-48W
Jun 27, 2022 - 04:56 AM EDT / 2022.06.27 0856 UTC
Wind: from the S (180 degrees) at 6 MPH (5 KT):0
Visibility: 10 mile(s):0
Sky conditions: clear
Temperature: 54.0 F (12.2 C)
Dew Point: 42.1 F (5.6 C)
Relative Humidity: 64%
Pressure (altimeter): 30.25 in. Hg (1024 hPa)
Pressure tendency: 0.02 inches (0.7 hPa) lower than three hours ago
ob: KGDV 270856Z AUTO 18005KT 10SM CLR 12/06 A3025 RMK AO2 SLP235 T01220056 58007
cycle: 9

Station Type Date Time Source
KGDV TAF 2022/06/27 06:30 UTC NOAA

TAF KGDV 270527Z 2706/2806 VRB06KT P6SM SKC
FM271900 35008KT P6SM SKC
FM280200 VRB06KT P6SM FEW120

Example: see airport list